MSC Maria Saveria — 3FLE8 — position and weather

sailwx.info

Track history (hours):
 
Tides and Currents Weather Stations Pressure Air Temp Water Temp Dewpoint Dewpoint Depression Visibility Wind Speed Wind Dir Waves Ship Positions

MSC Maria Saveria

Last reported at 2018-Dec-15 12:00 UTC. Time now 2018-Dec-15 12:29 UTC.
Position N 34°22' W 120°31'.

Length 366 m; draft 11.5 m.

Type: Ship (hazmat cat A). MMSI: 372400000.

Date/timePositionNaut miles runAvg speedWind from/ knotsBaromVisibWave heightAir tempDewpointWater temp
2018-Dec-15 12:00N 34°22' W 120°31'5 9.7
2018-Dec-15 11:29N 34°20' W 120°25'5 9.7
2018-Dec-15 10:58N 34°19' W 120°19'5 9.6
2018-Dec-15 10:30N 34°18' W 120°14'5 9.5
2018-Dec-15 10:00N 34°17' W 120°09'5 9.4
2018-Dec-15 09:30N 34°15' W 120°03'6 9.8
2018-Dec-15 08:54N 34°14' W 119°56'4 9.6
2018-Dec-15 08:30N 34°13' W 119°52'5 9.5
2018-Dec-15 07:59N 34°11' W 119°46'5 9.8
2018-Dec-15 07:30N 34°10' W 119°40'5 9.6
2018-Dec-15 06:59N 34°09' W 119°35'5 9.7
2018-Dec-15 06:29N 34°08' W 119°29'5 9.7
2018-Dec-15 06:00N 34°06' W 119°24'5 9.6
2018-Dec-15 05:30N 34°05' W 119°18'5 9.7
2018-Dec-15 05:00N 34°03' W 119°13'5 9.8
2018-Dec-15 04:31N 34°01' W 119°08'5 9.7
2018-Dec-15 04:00N 33°58' W 119°02'5 9.8
2018-Dec-15 03:30N 33°56' W 118°57'5 9.8
2018-Dec-15 03:01N 33°54' W 118°52'5 9.8
2018-Dec-15 02:30N 33°51' W 118°47'5 9.7
2018-Dec-15 01:59N 33°49' W 118°42'5 9.5
2018-Dec-15 01:30N 33°46' W 118°37'5 9.8
2018-Dec-15 01:00N 33°44' W 118°32'5 9.7
2018-Dec-15 00:30N 33°42' W 118°27'5 9.6
2018-Dec-15 00:01N 33°39' W 118°22'5 9.6
2018-Dec-14 23:30N 33°38' W 118°16'4 8.4
2018-Dec-14 23:00N 33°40' W 118°12'4 7.3
2018-Dec-14 22:30N 33°44' W 118°11'3 5.2
2018-Dec-14 22:00N 33°45' W 118°14'0 0.2
2018-Dec-14 21:30N 33°45' W 118°14'0 0.0
2018-Dec-14 20:59N 33°45' W 118°14'0 0.0
2018-Dec-14 20:29N 33°45' W 118°14'0 0.0
2018-Dec-14 19:59N 33°45' W 118°14'0 0.0
2018-Dec-14 19:29N 33°45' W 118°14'0 0.0
2018-Dec-14 18:59N 33°45' W 118°14'0 0.0
2018-Dec-14 18:29N 33°45' W 118°14'0 0.0
2018-Dec-14 17:59N 33°45' W 118°14'0 0.0
2018-Dec-14 17:29N 33°45' W 118°14'0 0.0
2018-Dec-14 16:59N 33°45' W 118°14'0 0.0
2018-Dec-14 16:29N 33°45' W 118°14'0 0.0
2018-Dec-14 15:59N 33°45' W 118°14'0 0.0
2018-Dec-14 15:29N 33°45' W 118°14'0 0.0
2018-Dec-14 14:59N 33°45' W 118°14'0 0.0
2018-Dec-14 14:29N 33°45' W 118°14'0 0.0
2018-Dec-14 13:59N 33°45' W 118°14'0 0.0
2018-Dec-14 13:29N 33°45' W 118°14'0 0.0
2018-Dec-14 12:59N 33°45' W 118°14'0 0.0
2018-Dec-14 12:29N 33°45' W 118°14'0 0.0
2018-Dec-14 11:59N 33°45' W 118°14'0 0.0
2018-Dec-14 11:29N 33°45' W 118°14'0 0.0
2018-Dec-14 10:59N 33°45' W 118°14'0 0.0
2018-Dec-14 10:29N 33°45' W 118°14'0 0.0
2018-Dec-14 09:59N 33°45' W 118°14'0 0.0
2018-Dec-14 09:29N 33°45' W 118°14'0 0.0
2018-Dec-14 08:59N 33°45' W 118°14'0 0.0
2018-Dec-14 08:29N 33°45' W 118°14'0 0.0
2018-Dec-14 07:59N 33°45' W 118°14'0 0.0
2018-Dec-14 07:29N 33°45' W 118°14'0 0.0
2018-Dec-14 06:59N 33°45' W 118°14'0 0.0
2018-Dec-14 06:29N 33°45' W 118°14'0 0.0
2018-Dec-14 05:59N 33°45' W 118°14'0 0.0
2018-Dec-14 05:29N 33°45' W 118°14'0 0.0
2018-Dec-14 04:59N 33°45' W 118°14'0 0.0
2018-Dec-14 04:29N 33°45' W 118°14'0 0.0
2018-Dec-14 03:59N 33°45' W 118°14'0 0.0
2018-Dec-14 02:59N 33°45' W 118°14'0 0.0
2018-Dec-14 02:29N 33°45' W 118°14'0 0.0
2018-Dec-14 01:59N 33°45' W 118°14'0 0.0
2018-Dec-14 01:29N 33°45' W 118°14'0 0.0
2018-Dec-14 00:59N 33°45' W 118°14'0 0.0
2018-Dec-14 00:29N 33°45' W 118°14'0 0.0
2018-Dec-13 23:59N 33°45' W 118°14'0 0.0
2018-Dec-13 23:29N 33°45' W 118°14'0 0.0
2018-Dec-13 22:59N 33°45' W 118°14'0 0.0
2018-Dec-13 22:29N 33°45' W 118°14'0 0.0
2018-Dec-13 21:59N 33°45' W 118°14'0 0.0
2018-Dec-13 21:29N 33°45' W 118°14'0 0.0
2018-Dec-13 20:59N 33°45' W 118°14'0 0.0
2018-Dec-13 20:29N 33°45' W 118°14'0 0.0
2018-Dec-13 19:59N 33°45' W 118°14'0 0.0
2018-Dec-13 19:29N 33°45' W 118°14'0 0.0
2018-Dec-13 18:53N 33°45' W 118°14'0 0.0
2018-Dec-13 18:29N 33°45' W 118°14'0 0.0
2018-Dec-13 17:59N 33°45' W 118°14'0 0.0
2018-Dec-13 17:29N 33°45' W 118°14'0 0.0
2018-Dec-13 16:59N 33°45' W 118°14'0 0.0
2018-Dec-13 16:29N 33°45' W 118°14'0 0.0
2018-Dec-13 15:59N 33°45' W 118°14'0 0.0
2018-Dec-13 15:29N 33°45' W 118°14'0 0.0
2018-Dec-13 14:59N 33°45' W 118°14'0 0.0
2018-Dec-13 14:29N 33°45' W 118°14'0 0.0
2018-Dec-13 13:59N 33°45' W 118°14'0 0.0
2018-Dec-13 13:29N 33°45' W 118°14'0 0.0
2018-Dec-13 12:59N 33°45' W 118°14'0 0.0
2018-Dec-13 12:29N 33°45' W 118°14'0 0.0
2018-Dec-13 11:59N 33°45' W 118°14'0 0.0
2018-Dec-13 11:29N 33°45' W 118°14'0 0.0
2018-Dec-13 10:59N 33°45' W 118°14'0 0.0
2018-Dec-13 10:29N 33°45' W 118°14'0 0.0
2018-Dec-13 09:59N 33°45' W 118°14'0 0.0
2018-Dec-13 09:29N 33°45' W 118°14'0 0.0
2018-Dec-13 08:59N 33°45' W 118°14'0 0.0
2018-Dec-13 08:29N 33°45' W 118°14'0 0.0
2018-Dec-13 07:59N 33°45' W 118°14'0 0.0
2018-Dec-13 07:29N 33°45' W 118°14'0 0.0
2018-Dec-13 06:59N 33°45' W 118°14'0 0.0
2018-Dec-13 06:29N 33°45' W 118°14'0 0.0
2018-Dec-13 05:56N 33°45' W 118°14'0 0.0
2018-Dec-13 05:29N 33°45' W 118°14'0 0.0
2018-Dec-13 04:59N 33°45' W 118°14'0 0.0
2018-Dec-13 04:29N 33°45' W 118°14'0 0.0
2018-Dec-13 03:59N 33°45' W 118°14'0 0.0
2018-Dec-13 03:29N 33°45' W 118°14'0 0.0
2018-Dec-13 02:56N 33°45' W 118°14'0 0.0
2018-Dec-13 02:29N 33°45' W 118°14'0 0.0
2018-Dec-13 01:59N 33°45' W 118°14'0 0.0
2018-Dec-13 01:29N 33°45' W 118°14'0 0.0
2018-Dec-13 00:59N 33°45' W 118°14'0 0.0
2018-Dec-13 00:29N 33°45' W 118°14'0 0.0
2018-Dec-12 23:59N 33°45' W 118°14'0 0.0
2018-Dec-12 23:29N 33°45' W 118°14'0 0.0
2018-Dec-12 22:56N 33°45' W 118°14'0 0.0
2018-Dec-12 22:29N 33°45' W 118°14'0 0.0
2018-Dec-12 21:59N 33°45' W 118°14'0 0.0
2018-Dec-12 21:29N 33°45' W 118°14'0 0.0
2018-Dec-12 20:59N 33°45' W 118°14'0 0.0
2018-Dec-12 20:23N 33°45' W 118°14'0 0.0
2018-Dec-12 19:56N 33°45' W 118°14'0 0.0
2018-Dec-12 19:29N 33°45' W 118°14'0 0.0
2018-Dec-12 18:59N 33°45' W 118°14'0 0.0
2018-Dec-12 18:29N 33°45' W 118°14'0 0.0
2018-Dec-12 17:59N 33°45' W 118°14'0 0.0
2018-Dec-12 17:26N 33°45' W 118°14'0 0.0
2018-Dec-12 16:59N 33°45' W 118°14'0 0.0
2018-Dec-12 16:29N 33°45' W 118°14'0 0.0
2018-Dec-12 15:50N 33°45' W 118°14'0 0.0
2018-Dec-12 15:29N 33°45' W 118°14'0 0.0
2018-Dec-12 14:59N 33°45' W 118°14'0 0.0
2018-Dec-12 14:26N 33°45' W 118°14'0 0.0
2018-Dec-12 13:59N 33°45' W 118°14'0 0.0
2018-Dec-12 13:29N 33°45' W 118°14'0 0.0
2018-Dec-12 12:59N 33°45' W 118°14'0 0.0
2018-Dec-12 12:29N 33°45' W 118°14'0 0.0
2018-Dec-12 11:59N 33°45' W 118°14'0 0.0
2018-Dec-12 11:29N 33°45' W 118°14'0 0.0
2018-Dec-12 10:59N 33°45' W 118°14'0 0.0
2018-Dec-12 10:29N 33°45' W 118°14'0 0.0
2018-Dec-12 09:59N 33°45' W 118°14'0 0.0
2018-Dec-12 09:29N 33°45' W 118°14'0 0.0
2018-Dec-12 08:56N 33°45' W 118°14'0 0.0
2018-Dec-12 08:29N 33°45' W 118°14'0 0.0
2018-Dec-12 07:59N 33°45' W 118°14'0 0.0
2018-Dec-12 07:29N 33°45' W 118°14'0 0.0
2018-Dec-12 06:59N 33°45' W 118°14'0 0.0
2018-Dec-12 06:29N 33°45' W 118°14'0 0.0
2018-Dec-12 05:59N 33°45' W 118°14'0 0.0
2018-Dec-12 05:29N 33°45' W 118°14'0 0.0
2018-Dec-12 04:59N 33°45' W 118°14'0 0.0
2018-Dec-12 04:29N 33°45' W 118°14'0 0.0
2018-Dec-12 03:59N 33°45' W 118°14'0 0.0
2018-Dec-12 03:28N 33°45' W 118°14'0 0.0
2018-Dec-12 02:59N 33°45' W 118°14'0 0.0
2018-Dec-12 02:29N 33°45' W 118°14'0 0.0
2018-Dec-12 01:59N 33°45' W 118°14'0 0.0
2018-Dec-12 01:29N 33°45' W 118°14'0 0.0
2018-Dec-12 00:59N 33°45' W 118°14'0 0.0
2018-Dec-12 00:29N 33°45' W 118°14'0 0.0
2018-Dec-11 23:58N 33°45' W 118°14'0 0.0
2018-Dec-11 23:26N 33°45' W 118°14'0 0.0
2018-Dec-11 22:59N 33°45' W 118°14'0 0.0
2018-Dec-11 22:28N 33°45' W 118°14'0 0.0
2018-Dec-11 21:56N 33°45' W 118°14'0 0.0
2018-Dec-11 21:29N 33°45' W 118°14'0 0.0
2018-Dec-11 20:59N 33°45' W 118°14'0 0.0
2018-Dec-11 20:29N 33°45' W 118°14'0 0.0
2018-Dec-11 19:56N 33°45' W 118°14'0 0.0
2018-Dec-11 19:29N 33°45' W 118°14'0 0.0
2018-Dec-11 18:59N 33°45' W 118°14'0 0.0
2018-Dec-11 18:29N 33°45' W 118°14'0 0.0
2018-Dec-11 17:59N 33°45' W 118°14'0 0.0
2018-Dec-11 17:28N 33°45' W 118°14'0 0.0
2018-Dec-11 16:58N 33°45' W 118°14'0 0.0
2018-Dec-11 16:28N 33°45' W 118°14'0 0.0
2018-Dec-11 15:58N 33°45' W 118°14'0 0.0
2018-Dec-11 15:28N 33°45' W 118°14'0 0.0
2018-Dec-11 14:59N 33°45' W 118°14'0 0.0
2018-Dec-11 14:29N 33°45' W 118°14'0 0.0
2018-Dec-11 13:58N 33°45' W 118°14'0 0.0
2018-Dec-11 13:25N 33°45' W 118°14'0 0.0
2018-Dec-11 12:59N 33°45' W 118°14'0 0.0
2018-Dec-11 12:26N 33°45' W 118°14'0 0.0
2018-Dec-11 11:59N 33°45' W 118°14'0 0.0
2018-Dec-11 11:28N 33°45' W 118°14'0 0.0
2018-Dec-11 10:59N 33°45' W 118°14'0 0.0
2018-Dec-11 10:29N 33°45' W 118°14'0 0.0
2018-Dec-11 09:58N 33°45' W 118°14'0 0.0
2018-Dec-11 09:29N 33°45' W 118°14'0 0.0
2018-Dec-11 08:58N 33°45' W 118°14'0 0.0
2018-Dec-11 08:28N 33°45' W 118°14'0 0.0
2018-Dec-11 07:58N 33°45' W 118°14'0 0.0
2018-Dec-11 07:28N 33°45' W 118°14'0 0.0
2018-Dec-11 06:58N 33°45' W 118°14'0 0.0
2018-Dec-11 06:28N 33°45' W 118°14'0 0.0
2018-Dec-11 05:58N 33°45' W 118°14'0 0.0
2018-Dec-11 05:28N 33°45' W 118°14'0 0.0
2018-Dec-11 04:58N 33°45' W 118°14'0 0.0
2018-Dec-11 04:28N 33°45' W 118°14'0 0.0
2018-Dec-11 03:58N 33°45' W 118°14'0 0.0
2018-Dec-11 03:28N 33°45' W 118°14'0 0.0
2018-Dec-11 02:58N 33°45' W 118°14'0 0.0
2018-Dec-11 02:28N 33°45' W 118°14'0 0.0
2018-Dec-11 01:58N 33°45' W 118°14'0 0.0
2018-Dec-11 01:28N 33°45' W 118°14'0 0.0
2018-Dec-11 00:58N 33°45' W 118°14'0 0.0
2018-Dec-11 00:28N 33°45' W 118°14'0 0.0
2018-Dec-10 23:58N 33°45' W 118°14'0 0.0
2018-Dec-10 23:28N 33°45' W 118°14'0 0.0
2018-Dec-10 22:58N 33°45' W 118°14'0 0.0
2018-Dec-10 22:28N 33°45' W 118°14'0 0.0
2018-Dec-10 21:58N 33°45' W 118°14'0 0.0
2018-Dec-10 21:28N 33°45' W 118°14'0 0.0
2018-Dec-10 20:58N 33°45' W 118°14'0 0.0
2018-Dec-10 20:28N 33°45' W 118°14'0 0.0
2018-Dec-10 19:58N 33°45' W 118°14'0 0.0
2018-Dec-10 19:28N 33°45' W 118°14'0 0.0
2018-Dec-10 18:58N 33°45' W 118°14'0 0.0
2018-Dec-10 18:28N 33°45' W 118°14'0 0.0
2018-Dec-10 17:58N 33°45' W 118°14'0 0.0
2018-Dec-10 17:28N 33°45' W 118°14'0 0.0
2018-Dec-10 16:58N 33°45' W 118°14'0 0.0
2018-Dec-10 16:28N 33°45' W 118°14'0 0.0
2018-Dec-10 15:58N 33°45' W 118°14'0 0.0
2018-Dec-10 15:28N 33°45' W 118°14'0 0.0
2018-Dec-10 14:58N 33°45' W 118°14'0 0.0
2018-Dec-10 14:28N 33°45' W 118°14'0 0.0
2018-Dec-10 13:58N 33°45' W 118°14'0 0.0
2018-Dec-10 13:25N 33°45' W 118°14'0 0.0
2018-Dec-10 12:58N 33°45' W 118°14'0 0.0
2018-Dec-10 12:28N 33°45' W 118°14'0 0.0
2018-Dec-10 11:58N 33°45' W 118°14'0 0.0
2018-Dec-10 11:28N 33°45' W 118°14'0 0.0
2018-Dec-10 10:58N 33°45' W 118°14'0 0.0
2018-Dec-10 10:28N 33°45' W 118°14'0 0.0
2018-Dec-10 09:58N 33°45' W 118°14'0 0.0
2018-Dec-10 09:28N 33°45' W 118°14'0 0.0
2018-Dec-10 08:58N 33°45' W 118°14'0 0.0
2018-Dec-10 08:28N 33°45' W 118°14'0 0.0
2018-Dec-10 07:58N 33°45' W 118°14'0 0.0
2018-Dec-10 07:28N 33°45' W 118°14'0 0.0
2018-Dec-10 06:55N 33°45' W 118°14'0 0.0
2018-Dec-10 06:28N 33°45' W 118°14'0 0.0
2018-Dec-10 05:58N 33°45' W 118°14'0 0.0
2018-Dec-10 05:28N 33°45' W 118°14'0 0.0
2018-Dec-10 04:58N 33°45' W 118°14'0 0.0
2018-Dec-10 04:28N 33°45' W 118°14'0 0.0
2018-Dec-10 03:58N 33°45' W 118°14'0 0.0
2018-Dec-10 03:28N 33°45' W 118°14'0 0.0
2018-Dec-10 02:28N 33°45' W 118°14'0 0.0
2018-Dec-10 01:58N 33°45' W 118°14'0 0.0
2018-Dec-10 01:28N 33°45' W 118°14'0 0.0
2018-Dec-10 00:58N 33°45' W 118°14'0 0.0
2018-Dec-10 00:28N 33°45' W 118°14'0 0.0
2018-Dec-09 23:58N 33°45' W 118°14'0 0.0
2018-Dec-09 23:28N 33°45' W 118°14'0 0.0
2018-Dec-09 22:58N 33°45' W 118°14'0 0.0
2018-Dec-09 22:28N 33°45' W 118°14'0 0.0
2018-Dec-09 21:58N 33°45' W 118°14'0 0.0
2018-Dec-09 21:28N 33°45' W 118°14'0 0.0
2018-Dec-09 20:58N 33°45' W 118°14'0 0.0
2018-Dec-09 20:28N 33°45' W 118°14'0 0.0
2018-Dec-09 19:58N 33°45' W 118°14'0 0.0
2018-Dec-09 19:28N 33°45' W 118°14'0 0.0
2018-Dec-09 18:58N 33°45' W 118°14'0 0.0
2018-Dec-09 18:28N 33°45' W 118°14'0 0.0
2018-Dec-09 17:58N 33°45' W 118°14'0 0.0
2018-Dec-09 17:25N 33°45' W 118°14'0 0.0
2018-Dec-09 16:58N 33°45' W 118°14'0 0.0
2018-Dec-09 16:28N 33°45' W 118°14'0 0.0
2018-Dec-09 15:58N 33°45' W 118°14'0 0.0
2018-Dec-09 15:28N 33°45' W 118°14'0 0.0
2018-Dec-09 14:58N 33°45' W 118°14'0 0.0
2018-Dec-09 14:28N 33°45' W 118°14'0 0.0
2018-Dec-09 13:58N 33°45' W 118°14'0 0.0
2018-Dec-09 13:25N 33°45' W 118°14'0 0.0
2018-Dec-09 12:58N 33°45' W 118°14'0 0.0
2018-Dec-09 12:28N 33°45' W 118°14'0 0.0
2018-Dec-09 11:58N 33°45' W 118°14'0 0.0
2018-Dec-09 11:28N 33°45' W 118°14'0 0.0
2018-Dec-09 10:58N 33°45' W 118°14'0 0.0
2018-Dec-09 10:28N 33°45' W 118°14'0 0.0
2018-Dec-09 09:58N 33°45' W 118°14'0 0.0
2018-Dec-09 09:28N 33°45' W 118°14'0 0.0
2018-Dec-09 08:58N 33°45' W 118°14'0 0.0
2018-Dec-09 08:28N 33°45' W 118°14'0 0.0
2018-Dec-09 07:58N 33°45' W 118°14'0 0.0
2018-Dec-09 07:25N 33°45' W 118°14'0 0.0
2018-Dec-09 06:58N 33°45' W 118°14'0 0.0
2018-Dec-09 06:28N 33°45' W 118°14'0 0.0
2018-Dec-09 05:58N 33°45' W 118°14'0 0.0
2018-Dec-09 05:28N 33°45' W 118°14'0 0.0
2018-Dec-09 04:58N 33°45' W 118°14'0 0.0
2018-Dec-09 04:28N 33°45' W 118°14'0 0.0
2018-Dec-09 03:58N 33°45' W 118°14'0 0.0
2018-Dec-09 03:28N 33°45' W 118°14'0 0.0
2018-Dec-09 02:55N 33°45' W 118°14'0 0.0
2018-Dec-09 02:28N 33°45' W 118°14'0 0.0
2018-Dec-09 01:58N 33°45' W 118°14'0 0.0
2018-Dec-09 01:28N 33°45' W 118°14'0 0.0
2018-Dec-09 00:58N 33°45' W 118°14'0 0.0
2018-Dec-09 00:28N 33°45' W 118°14'0 0.0
2018-Dec-08 23:58N 33°45' W 118°14'0 0.0
2018-Dec-08 23:28N 33°45' W 118°14'0 0.0
2018-Dec-08 22:58N 33°45' W 118°14'0 0.0
2018-Dec-08 22:28N 33°45' W 118°14'0 0.0
2018-Dec-08 21:58N 33°45' W 118°14'0 0.0
2018-Dec-08 21:28N 33°45' W 118°14'0 0.0
2018-Dec-08 20:58N 33°45' W 118°14'0 0.0
2018-Dec-08 20:28N 33°45' W 118°14'0 0.0
2018-Dec-08 19:58N 33°45' W 118°14'0 0.0
2018-Dec-08 19:28N 33°45' W 118°14'0 0.0
2018-Dec-08 18:58N 33°45' W 118°14'0 0.0
2018-Dec-08 18:28N 33°45' W 118°14'0 0.0
2018-Dec-08 17:58N 33°45' W 118°14'0 0.0
2018-Dec-08 17:28N 33°45' W 118°14'0 0.0
2018-Dec-08 16:58N 33°45' W 118°14'0 0.0
2018-Dec-08 16:28N 33°45' W 118°14'0 0.0
2018-Dec-08 15:58N 33°45' W 118°14'0 0.0
2018-Dec-08 15:28N 33°45' W 118°14'0 0.0
2018-Dec-08 14:58N 33°45' W 118°14'0 0.0
2018-Dec-08 14:28N 33°45' W 118°14'0 0.0
2018-Dec-08 13:58N 33°45' W 118°14'0 0.0
2018-Dec-08 13:28N 33°45' W 118°14'0 0.0
2018-Dec-08 13:00N 33°45' W 118°14'0 1.0
2018-Dec-08 12:30N 33°45' W 118°14'4 7.4
2018-Dec-08 12:00N 33°42' W 118°11'2 3.4
2018-Dec-08 11:28N 33°41' W 118°09'0 0.0
2018-Dec-08 10:58N 33°41' W 118°09'0 0.1
2018-Dec-08 10:28N 33°41' W 118°09'0 0.0
2018-Dec-08 09:58N 33°41' W 118°09'0 0.0
2018-Dec-08 09:28N 33°41' W 118°09'0 0.0
2018-Dec-08 08:58N 33°41' W 118°09'0 0.0
2018-Dec-08 08:28N 33°41' W 118°09'0 0.1
2018-Dec-08 07:58N 33°41' W 118°09'0 0.0
2018-Dec-08 07:25N 33°41' W 118°09'0 0.0
2018-Dec-08 06:58N 33°41' W 118°09'0 0.1
2018-Dec-08 06:28N 33°41' W 118°09'0 0.1
2018-Dec-08 05:58N 33°41' W 118°09'0 0.1
2018-Dec-08 05:28N 33°41' W 118°09'0 0.1
2018-Dec-08 04:58N 33°41' W 118°09'0 0.0
2018-Dec-08 04:28N 33°41' W 118°09'0 0.1
2018-Dec-08 03:58N 33°41' W 118°09'0 0.0
2018-Dec-08 03:28N 33°41' W 118°09'0 0.0
2018-Dec-08 02:58N 33°41' W 118°09'0 0.0
2018-Dec-08 02:28N 33°41' W 118°09'0 0.0
2018-Dec-08 01:58N 33°41' W 118°09'0 0.0
2018-Dec-08 01:28N 33°41' W 118°09'0 0.0
2018-Dec-08 00:55N 33°41' W 118°09'0 0.0
2018-Dec-08 00:28N 33°41' W 118°09'0 0.0
2018-Dec-07 23:55N 33°41' W 118°09'0 0.0
2018-Dec-07 23:28N 33°41' W 118°09'0 0.0
2018-Dec-07 22:58N 33°41' W 118°09'0 0.0
2018-Dec-07 22:28N 33°41' W 118°09'0 0.0
2018-Dec-07 21:58N 33°41' W 118°09'0 0.0
2018-Dec-07 21:25N 33°41' W 118°09'0 0.1
2018-Dec-07 20:58N 33°41' W 118°09'0 0.2
2018-Dec-07 20:28N 33°41' W 118°09'0 0.1
2018-Dec-07 19:58N 33°41' W 118°09'0 0.1
2018-Dec-07 19:28N 33°41' W 118°09'0 0.0
2018-Dec-07 18:58N 33°41' W 118°09'0 0.1
2018-Dec-07 18:28N 33°41' W 118°09'0 0.1
2018-Dec-07 17:58N 33°41' W 118°09'0 0.0
2018-Dec-07 17:28N 33°41' W 118°09'0 0.1
2018-Dec-07 16:58N 33°41' W 118°09'0 0.0
2018-Dec-07 16:28N 33°41' W 118°09'0 0.1
2018-Dec-07 15:58N 33°41' W 118°09'0 0.0
2018-Dec-07 15:28N 33°41' W 118°09'0 0.1
2018-Dec-07 14:58N 33°41' W 118°09'0 0.0
2018-Dec-07 14:28N 33°41' W 118°09'0 0.1
2018-Dec-07 13:58N 33°41' W 118°09'0 0.0
2018-Dec-07 13:28N 33°41' W 118°09'0 0.1
2018-Dec-07 12:58N 33°41' W 118°09'1 1.9
2018-Dec-07 12:30N 33°40' W 118°09'3 5.4
2018-Dec-07 12:00N 33°38' W 118°11'3 6.5
2018-Dec-07 11:30N 33°36' W 118°14'4 9.0
2018-Dec-07 11:01N 33°36' W 118°19'5 9.0
2018-Dec-07 10:30N 33°37' W 118°24'5 9.2
2018-Dec-07 10:00N 33°40' W 118°29'5 9.2
2018-Dec-07 09:30N 33°42' W 118°34'5 9.3
2018-Dec-07 09:00N 33°44' W 118°39'5 9.4
2018-Dec-07 08:30N 33°47' W 118°43'5 9.6
2018-Dec-07 08:00N 33°49' W 118°49'5 9.5
2018-Dec-07 07:30N 33°51' W 118°53'5 9.6
2018-Dec-07 07:00N 33°54' W 118°58'5 9.2
2018-Dec-07 06:30N 33°56' W 119°03'5 9.4
2018-Dec-07 06:00N 33°59' W 119°08'6 9.7
2018-Dec-07 05:26N 34°01' W 119°14'4 9.9
2018-Dec-07 05:00N 34°03' W 119°19'5 9.1
2018-Dec-07 04:29N 34°04' W 119°24'4 8.6
2018-Dec-07 04:00N 34°05' W 119°29'9 8.9
2018-Dec-07 03:00N 34°08' W 119°39'5 9.4
2018-Dec-07 02:25N 34°09' W 119°46'4 8.8
2018-Dec-07 02:00N 34°10' W 119°50'5 9.3
2018-Dec-07 01:30N 34°12' W 119°55'5 6.7
2018-Dec-07 00:43N 34°13' W 120°01'2 6.8
2018-Dec-07 00:28N 34°13' W 120°03'3 6.9
2018-Dec-07 00:00N 34°14' W 120°07'4 6.6
2018-Dec-06 23:26N 34°15' W 120°12'3 6.4
2018-Dec-06 23:00N 34°16' W 120°15'4 6.4
2018-Dec-06 22:26N 34°17' W 120°19'3 6.2
2018-Dec-06 22:00N 34°18' W 120°22'3 6.4
2018-Dec-06 21:29N 34°18' W 120°26'4 6.4
2018-Dec-06 20:55N 34°19' W 120°30'3 6.5
2018-Dec-06 20:30N 34°20' W 120°33'4 7.6
2018-Dec-06 19:59N 34°21' W 120°38'4 9.1
2018-Dec-06 19:30N 34°22' W 120°43'5 8.9
2018-Dec-06 18:56N 34°24' W 120°49'6 8.6
2018-Dec-06 18:17N 34°24' W 120°56'3 8.7
2018-Dec-06 17:53N 34°25' W 120°60'3 8.6
2018-Dec-06 17:30N 34°25' W 121°04'4 8.8
2018-Dec-06 17:00N 34°25' W 121°09'4 8.7
2018-Dec-06 16:30N 34°25' W 121°14'5 9.4
2018-Dec-06 16:00N 34°25' W 121°20'5 9.5
2018-Dec-06 15:30N 34°25' W 121°26'3 5.8
2018-Dec-06 15:00N 34°25' W 121°29'815.5
2018-Dec-06 14:30N 34°26' W 121°39'815.5
2018-Dec-06 14:00N 34°26' W 121°48'815.3
2018-Dec-06 13:30N 34°26' W 121°58'  
Track history (hours):
 
Tides and Currents Weather Stations Pressure Air Temp Water Temp Dewpoint Dewpoint Depression Visibility Wind Speed Wind Dir Waves Ship Positions

MSC Maria Saveria

Last reported at 2018-Dec-15 12:00 UTC. Time now 2018-Dec-15 12:29 UTC.
Position N 34°22' W 120°31'.

Length 366 m; draft 11.5 m.

Type: Ship (hazmat cat A). MMSI: 372400000.

Date/timePositionNaut miles runAvg speedWind from/ knotsBaromVisibWave heightAir tempDewpointWater temp
2018-Dec-15 12:00N 34°22' W 120°31'5 9.7
2018-Dec-15 11:29N 34°20' W 120°25'5 9.7
2018-Dec-15 10:58N 34°19' W 120°19'5 9.6
2018-Dec-15 10:30N 34°18' W 120°14'5 9.5
2018-Dec-15 10:00N 34°17' W 120°09'5 9.4
2018-Dec-15 09:30N 34°15' W 120°03'6 9.8
2018-Dec-15 08:54N 34°14' W 119°56'4 9.6
2018-Dec-15 08:30N 34°13' W 119°52'5 9.5
2018-Dec-15 07:59N 34°11' W 119°46'5 9.8
2018-Dec-15 07:30N 34°10' W 119°40'5 9.6
2018-Dec-15 06:59N 34°09' W 119°35'5 9.7
2018-Dec-15 06:29N 34°08' W 119°29'5 9.7
2018-Dec-15 06:00N 34°06' W 119°24'5 9.6
2018-Dec-15 05:30N 34°05' W 119°18'5 9.7
2018-Dec-15 05:00N 34°03' W 119°13'5 9.8
2018-Dec-15 04:31N 34°01' W 119°08'5 9.7
2018-Dec-15 04:00N 33°58' W 119°02'5 9.8
2018-Dec-15 03:30N 33°56' W 118°57'5 9.8
2018-Dec-15 03:01N 33°54' W 118°52'5 9.8
2018-Dec-15 02:30N 33°51' W 118°47'5 9.7
2018-Dec-15 01:59N 33°49' W 118°42'5 9.5
2018-Dec-15 01:30N 33°46' W 118°37'5 9.8
2018-Dec-15 01:00N 33°44' W 118°32'5 9.7
2018-Dec-15 00:30N 33°42' W 118°27'5 9.6
2018-Dec-15 00:01N 33°39' W 118°22'5 9.6
2018-Dec-14 23:30N 33°38' W 118°16'4 8.4
2018-Dec-14 23:00N 33°40' W 118°12'4 7.3
2018-Dec-14 22:30N 33°44' W 118°11'3 5.2
2018-Dec-14 22:00N 33°45' W 118°14'0 0.2
2018-Dec-14 21:30N 33°45' W 118°14'0 0.0
2018-Dec-14 20:59N 33°45' W 118°14'0 0.0
2018-Dec-14 20:29N 33°45' W 118°14'0 0.0
2018-Dec-14 19:59N 33°45' W 118°14'0 0.0
2018-Dec-14 19:29N 33°45' W 118°14'0 0.0
2018-Dec-14 18:59N 33°45' W 118°14'0 0.0
2018-Dec-14 18:29N 33°45' W 118°14'0 0.0
2018-Dec-14 17:59N 33°45' W 118°14'0 0.0
2018-Dec-14 17:29N 33°45' W 118°14'0 0.0
2018-Dec-14 16:59N 33°45' W 118°14'0 0.0
2018-Dec-14 16:29N 33°45' W 118°14'0 0.0
2018-Dec-14 15:59N 33°45' W 118°14'0 0.0
2018-Dec-14 15:29N 33°45' W 118°14'0 0.0
2018-Dec-14 14:59N 33°45' W 118°14'0 0.0
2018-Dec-14 14:29N 33°45' W 118°14'0 0.0
2018-Dec-14 13:59N 33°45' W 118°14'0 0.0
2018-Dec-14 13:29N 33°45' W 118°14'0 0.0
2018-Dec-14 12:59N 33°45' W 118°14'0 0.0
2018-Dec-14 12:29N 33°45' W 118°14'0 0.0
2018-Dec-14 11:59N 33°45' W 118°14'0 0.0
2018-Dec-14 11:29N 33°45' W 118°14'0 0.0
2018-Dec-14 10:59N 33°45' W 118°14'0 0.0
2018-Dec-14 10:29N 33°45' W 118°14'0 0.0
2018-Dec-14 09:59N 33°45' W 118°14'0 0.0
2018-Dec-14 09:29N 33°45' W 118°14'0 0.0
2018-Dec-14 08:59N 33°45' W 118°14'0 0.0
2018-Dec-14 08:29N 33°45' W 118°14'0 0.0
2018-Dec-14 07:59N 33°45' W 118°14'0 0.0
2018-Dec-14 07:29N 33°45' W 118°14'0 0.0
2018-Dec-14 06:59N 33°45' W 118°14'0 0.0
2018-Dec-14 06:29N 33°45' W 118°14'0 0.0
2018-Dec-14 05:59N 33°45' W 118°14'0 0.0
2018-Dec-14 05:29N 33°45' W 118°14'0 0.0
2018-Dec-14 04:59N 33°45' W 118°14'0 0.0
2018-Dec-14 04:29N 33°45' W 118°14'0 0.0
2018-Dec-14 03:59N 33°45' W 118°14'0 0.0
2018-Dec-14 02:59N 33°45' W 118°14'0 0.0
2018-Dec-14 02:29N 33°45' W 118°14'0 0.0
2018-Dec-14 01:59N 33°45' W 118°14'0 0.0
2018-Dec-14 01:29N 33°45' W 118°14'0 0.0
2018-Dec-14 00:59N 33°45' W 118°14'0 0.0
2018-Dec-14 00:29N 33°45' W 118°14'0 0.0
2018-Dec-13 23:59N 33°45' W 118°14'0 0.0
2018-Dec-13 23:29N 33°45' W 118°14'0 0.0
2018-Dec-13 22:59N 33°45' W 118°14'0 0.0
2018-Dec-13 22:29N 33°45' W 118°14'0 0.0
2018-Dec-13 21:59N 33°45' W 118°14'0 0.0
2018-Dec-13 21:29N 33°45' W 118°14'0 0.0
2018-Dec-13 20:59N 33°45' W 118°14'0 0.0
2018-Dec-13 20:29N 33°45' W 118°14'0 0.0
2018-Dec-13 19:59N 33°45' W 118°14'0 0.0
2018-Dec-13 19:29N 33°45' W 118°14'0 0.0
2018-Dec-13 18:53N 33°45' W 118°14'0 0.0
2018-Dec-13 18:29N 33°45' W 118°14'0 0.0
2018-Dec-13 17:59N 33°45' W 118°14'0 0.0
2018-Dec-13 17:29N 33°45' W 118°14'0 0.0
2018-Dec-13 16:59N 33°45' W 118°14'0 0.0
2018-Dec-13 16:29N 33°45' W 118°14'0 0.0
2018-Dec-13 15:59N 33°45' W 118°14'0 0.0
2018-Dec-13 15:29N 33°45' W 118°14'0 0.0
2018-Dec-13 14:59N 33°45' W 118°14'0 0.0
2018-Dec-13 14:29N 33°45' W 118°14'0 0.0
2018-Dec-13 13:59N 33°45' W 118°14'0 0.0
2018-Dec-13 13:29N 33°45' W 118°14'0 0.0
2018-Dec-13 12:59N 33°45' W 118°14'0 0.0
2018-Dec-13 12:29N 33°45' W 118°14'0 0.0
2018-Dec-13 11:59N 33°45' W 118°14'0 0.0
2018-Dec-13 11:29N 33°45' W 118°14'0 0.0
2018-Dec-13 10:59N 33°45' W 118°14'0 0.0
2018-Dec-13 10:29N 33°45' W 118°14'0 0.0
2018-Dec-13 09:59N 33°45' W 118°14'0 0.0
2018-Dec-13 09:29N 33°45' W 118°14'0 0.0
2018-Dec-13 08:59N 33°45' W 118°14'0 0.0
2018-Dec-13 08:29N 33°45' W 118°14'0 0.0
2018-Dec-13 07:59N 33°45' W 118°14'0 0.0
2018-Dec-13 07:29N 33°45' W 118°14'0 0.0
2018-Dec-13 06:59N 33°45' W 118°14'0 0.0
2018-Dec-13 06:29N 33°45' W 118°14'0 0.0
2018-Dec-13 05:56N 33°45' W 118°14'0 0.0
2018-Dec-13 05:29N 33°45' W 118°14'0 0.0
2018-Dec-13 04:59N 33°45' W 118°14'0 0.0
2018-Dec-13 04:29N 33°45' W 118°14'0 0.0
2018-Dec-13 03:59N 33°45' W 118°14'0 0.0
2018-Dec-13 03:29N 33°45' W 118°14'0 0.0
2018-Dec-13 02:56N 33°45' W 118°14'0 0.0
2018-Dec-13 02:29N 33°45' W 118°14'0 0.0
2018-Dec-13 01:59N 33°45' W 118°14'0 0.0
2018-Dec-13 01:29N 33°45' W 118°14'0 0.0
2018-Dec-13 00:59N 33°45' W 118°14'0 0.0
2018-Dec-13 00:29N 33°45' W 118°14'0 0.0
2018-Dec-12 23:59N 33°45' W 118°14'0 0.0
2018-Dec-12 23:29N 33°45' W 118°14'0 0.0
2018-Dec-12 22:56N 33°45' W 118°14'0 0.0
2018-Dec-12 22:29N 33°45' W 118°14'0 0.0
2018-Dec-12 21:59N 33°45' W 118°14'0 0.0
2018-Dec-12 21:29N 33°45' W 118°14'0 0.0
2018-Dec-12 20:59N 33°45' W 118°14'0 0.0
2018-Dec-12 20:23N 33°45' W 118°14'0 0.0
2018-Dec-12 19:56N 33°45' W 118°14'0 0.0
2018-Dec-12 19:29N 33°45' W 118°14'0 0.0
2018-Dec-12 18:59N 33°45' W 118°14'0 0.0
2018-Dec-12 18:29N 33°45' W 118°14'0 0.0
2018-Dec-12 17:59N 33°45' W 118°14'0 0.0
2018-Dec-12 17:26N 33°45' W 118°14'0 0.0
2018-Dec-12 16:59N 33°45' W 118°14'0 0.0
2018-Dec-12 16:29N 33°45' W 118°14'0 0.0
2018-Dec-12 15:50N 33°45' W 118°14'0 0.0
2018-Dec-12 15:29N 33°45' W 118°14'0 0.0
2018-Dec-12 14:59N 33°45' W 118°14'0 0.0
2018-Dec-12 14:26N 33°45' W 118°14'0 0.0
2018-Dec-12 13:59N 33°45' W 118°14'0 0.0
2018-Dec-12 13:29N 33°45' W 118°14'0 0.0
2018-Dec-12 12:59N 33°45' W 118°14'0 0.0
2018-Dec-12 12:29N 33°45' W 118°14'0 0.0
2018-Dec-12 11:59N 33°45' W 118°14'0 0.0
2018-Dec-12 11:29N 33°45' W 118°14'0 0.0
2018-Dec-12 10:59N 33°45' W 118°14'0 0.0
2018-Dec-12 10:29N 33°45' W 118°14'0 0.0
2018-Dec-12 09:59N 33°45' W 118°14'0 0.0
2018-Dec-12 09:29N 33°45' W 118°14'0 0.0
2018-Dec-12 08:56N 33°45' W 118°14'0 0.0
2018-Dec-12 08:29N 33°45' W 118°14'0 0.0
2018-Dec-12 07:59N 33°45' W 118°14'0 0.0
2018-Dec-12 07:29N 33°45' W 118°14'0 0.0
2018-Dec-12 06:59N 33°45' W 118°14'0 0.0
2018-Dec-12 06:29N 33°45' W 118°14'0 0.0
2018-Dec-12 05:59N 33°45' W 118°14'0 0.0
2018-Dec-12 05:29N 33°45' W 118°14'0 0.0
2018-Dec-12 04:59N 33°45' W 118°14'0 0.0
2018-Dec-12 04:29N 33°45' W 118°14'0 0.0
2018-Dec-12 03:59N 33°45' W 118°14'0 0.0
2018-Dec-12 03:28N 33°45' W 118°14'0 0.0
2018-Dec-12 02:59N 33°45' W 118°14'0 0.0
2018-Dec-12 02:29N 33°45' W 118°14'0 0.0
2018-Dec-12 01:59N 33°45' W 118°14'0 0.0
2018-Dec-12 01:29N 33°45' W 118°14'0 0.0
2018-Dec-12 00:59N 33°45' W 118°14'0 0.0
2018-Dec-12 00:29N 33°45' W 118°14'0 0.0
2018-Dec-11 23:58N 33°45' W 118°14'0 0.0
2018-Dec-11 23:26N 33°45' W 118°14'0 0.0
2018-Dec-11 22:59N 33°45' W 118°14'0 0.0
2018-Dec-11 22:28N 33°45' W 118°14'0 0.0
2018-Dec-11 21:56N 33°45' W 118°14'0 0.0
2018-Dec-11 21:29N 33°45' W 118°14'0 0.0
2018-Dec-11 20:59N 33°45' W 118°14'0 0.0
2018-Dec-11 20:29N 33°45' W 118°14'0 0.0
2018-Dec-11 19:56N 33°45' W 118°14'0 0.0
2018-Dec-11 19:29N 33°45' W 118°14'0 0.0
2018-Dec-11 18:59N 33°45' W 118°14'0 0.0
2018-Dec-11 18:29N 33°45' W 118°14'0 0.0
2018-Dec-11 17:59N 33°45' W 118°14'0 0.0
2018-Dec-11 17:28N 33°45' W 118°14'0 0.0
2018-Dec-11 16:58N 33°45' W 118°14'0 0.0
2018-Dec-11 16:28N 33°45' W 118°14'0 0.0
2018-Dec-11 15:58N 33°45' W 118°14'0 0.0
2018-Dec-11 15:28N 33°45' W 118°14'0 0.0
2018-Dec-11 14:59N 33°45' W 118°14'0 0.0
2018-Dec-11 14:29N 33°45' W 118°14'0 0.0
2018-Dec-11 13:58N 33°45' W 118°14'0 0.0
2018-Dec-11 13:25N 33°45' W 118°14'0 0.0
2018-Dec-11 12:59N 33°45' W 118°14'0 0.0
2018-Dec-11 12:26N 33°45' W 118°14'0 0.0
2018-Dec-11 11:59N 33°45' W 118°14'0 0.0
2018-Dec-11 11:28N 33°45' W 118°14'0 0.0
2018-Dec-11 10:59N 33°45' W 118°14'0 0.0
2018-Dec-11 10:29N 33°45' W 118°14'0 0.0
2018-Dec-11 09:58N 33°45' W 118°14'0 0.0
2018-Dec-11 09:29N 33°45' W 118°14'0 0.0
2018-Dec-11 08:58N 33°45' W 118°14'0 0.0
2018-Dec-11 08:28N 33°45' W 118°14'0 0.0
2018-Dec-11 07:58N 33°45' W 118°14'0 0.0
2018-Dec-11 07:28N 33°45' W 118°14'0 0.0
2018-Dec-11 06:58N 33°45' W 118°14'0 0.0
2018-Dec-11 06:28N 33°45' W 118°14'0 0.0
2018-Dec-11 05:58N 33°45' W 118°14'0 0.0
2018-Dec-11 05:28N 33°45' W 118°14'0 0.0
2018-Dec-11 04:58N 33°45' W 118°14'0 0.0
2018-Dec-11 04:28N 33°45' W 118°14'0 0.0
2018-Dec-11 03:58N 33°45' W 118°14'0 0.0
2018-Dec-11 03:28N 33°45' W 118°14'0 0.0
2018-Dec-11 02:58N 33°45' W 118°14'0 0.0
2018-Dec-11 02:28N 33°45' W 118°14'0 0.0
2018-Dec-11 01:58N 33°45' W 118°14'0 0.0
2018-Dec-11 01:28N 33°45' W 118°14'0 0.0
2018-Dec-11 00:58N 33°45' W 118°14'0 0.0
2018-Dec-11 00:28N 33°45' W 118°14'0 0.0
2018-Dec-10 23:58N 33°45' W 118°14'0 0.0
2018-Dec-10 23:28N 33°45' W 118°14'0 0.0
2018-Dec-10 22:58N 33°45' W 118°14'0 0.0
2018-Dec-10 22:28N 33°45' W 118°14'0 0.0
2018-Dec-10 21:58N 33°45' W 118°14'0 0.0
2018-Dec-10 21:28N 33°45' W 118°14'0 0.0
2018-Dec-10 20:58N 33°45' W 118°14'0 0.0
2018-Dec-10 20:28N 33°45' W 118°14'0 0.0
2018-Dec-10 19:58N 33°45' W 118°14'0 0.0
2018-Dec-10 19:28N 33°45' W 118°14'0 0.0
2018-Dec-10 18:58N 33°45' W 118°14'0 0.0
2018-Dec-10 18:28N 33°45' W 118°14'0 0.0
2018-Dec-10 17:58N 33°45' W 118°14'0 0.0
2018-Dec-10 17:28N 33°45' W 118°14'0 0.0
2018-Dec-10 16:58N 33°45' W 118°14'0 0.0
2018-Dec-10 16:28N 33°45' W 118°14'0 0.0
2018-Dec-10 15:58N 33°45' W 118°14'0 0.0
2018-Dec-10 15:28N 33°45' W 118°14'0 0.0
2018-Dec-10 14:58N 33°45' W 118°14'0 0.0
2018-Dec-10 14:28N 33°45' W 118°14'0 0.0
2018-Dec-10 13:58N 33°45' W 118°14'0 0.0
2018-Dec-10 13:25N 33°45' W 118°14'0 0.0
2018-Dec-10 12:58N 33°45' W 118°14'0 0.0
2018-Dec-10 12:28N 33°45' W 118°14'0 0.0
2018-Dec-10 11:58N 33°45' W 118°14'0 0.0
2018-Dec-10 11:28N 33°45' W 118°14'0 0.0
2018-Dec-10 10:58N 33°45' W 118°14'0 0.0
2018-Dec-10 10:28N 33°45' W 118°14'0 0.0
2018-Dec-10 09:58N 33°45' W 118°14'0 0.0
2018-Dec-10 09:28N 33°45' W 118°14'0 0.0
2018-Dec-10 08:58N 33°45' W 118°14'0 0.0
2018-Dec-10 08:28N 33°45' W 118°14'0 0.0
2018-Dec-10 07:58N 33°45' W 118°14'0 0.0
2018-Dec-10 07:28N 33°45' W 118°14'0 0.0
2018-Dec-10 06:55N 33°45' W 118°14'0 0.0
2018-Dec-10 06:28N 33°45' W 118°14'0 0.0
2018-Dec-10 05:58N 33°45' W 118°14'0 0.0
2018-Dec-10 05:28N 33°45' W 118°14'0 0.0
2018-Dec-10 04:58N 33°45' W 118°14'0 0.0
2018-Dec-10 04:28N 33°45' W 118°14'0 0.0
2018-Dec-10 03:58N 33°45' W 118°14'0 0.0
2018-Dec-10 03:28N 33°45' W 118°14'0 0.0
2018-Dec-10 02:28N 33°45' W 118°14'0 0.0
2018-Dec-10 01:58N 33°45' W 118°14'0 0.0
2018-Dec-10 01:28N 33°45' W 118°14'0 0.0
2018-Dec-10 00:58N 33°45' W 118°14'0 0.0
2018-Dec-10 00:28N 33°45' W 118°14'0 0.0
2018-Dec-09 23:58N 33°45' W 118°14'0 0.0
2018-Dec-09 23:28N 33°45' W 118°14'0 0.0
2018-Dec-09 22:58N 33°45' W 118°14'0 0.0
2018-Dec-09 22:28N 33°45' W 118°14'0 0.0
2018-Dec-09 21:58N 33°45' W 118°14'0 0.0
2018-Dec-09 21:28N 33°45' W 118°14'0 0.0
2018-Dec-09 20:58N 33°45' W 118°14'0 0.0
2018-Dec-09 20:28N 33°45' W 118°14'0 0.0
2018-Dec-09 19:58N 33°45' W 118°14'0 0.0
2018-Dec-09 19:28N 33°45' W 118°14'0 0.0
2018-Dec-09 18:58N 33°45' W 118°14'0 0.0
2018-Dec-09 18:28N 33°45' W 118°14'0 0.0
2018-Dec-09 17:58N 33°45' W 118°14'0 0.0
2018-Dec-09 17:25N 33°45' W 118°14'0 0.0
2018-Dec-09 16:58N 33°45' W 118°14'0 0.0
2018-Dec-09 16:28N 33°45' W 118°14'0 0.0
2018-Dec-09 15:58N 33°45' W 118°14'0 0.0
2018-Dec-09 15:28N 33°45' W 118°14'0 0.0
2018-Dec-09 14:58N 33°45' W 118°14'0 0.0
2018-Dec-09 14:28N 33°45' W 118°14'0 0.0
2018-Dec-09 13:58N 33°45' W 118°14'0 0.0
2018-Dec-09 13:25N 33°45' W 118°14'0 0.0
2018-Dec-09 12:58N 33°45' W 118°14'0 0.0
2018-Dec-09 12:28N 33°45' W 118°14'0 0.0
2018-Dec-09 11:58N 33°45' W 118°14'0 0.0
2018-Dec-09 11:28N 33°45' W 118°14'0 0.0
2018-Dec-09 10:58N 33°45' W 118°14'0 0.0
2018-Dec-09 10:28N 33°45' W 118°14'0 0.0
2018-Dec-09 09:58N 33°45' W 118°14'0 0.0
2018-Dec-09 09:28N 33°45' W 118°14'0 0.0
2018-Dec-09 08:58N 33°45' W 118°14'0 0.0
2018-Dec-09 08:28N 33°45' W 118°14'0 0.0
2018-Dec-09 07:58N 33°45' W 118°14'0 0.0
2018-Dec-09 07:25N 33°45' W 118°14'0 0.0
2018-Dec-09 06:58N 33°45' W 118°14'0 0.0
2018-Dec-09 06:28N 33°45' W 118°14'0 0.0
2018-Dec-09 05:58N 33°45' W 118°14'0 0.0
2018-Dec-09 05:28N 33°45' W 118°14'0 0.0
2018-Dec-09 04:58N 33°45' W 118°14'0 0.0
2018-Dec-09 04:28N 33°45' W 118°14'0 0.0
2018-Dec-09 03:58N 33°45' W 118°14'0 0.0
2018-Dec-09 03:28N 33°45' W 118°14'0 0.0
2018-Dec-09 02:55N 33°45' W 118°14'0 0.0
2018-Dec-09 02:28N 33°45' W 118°14'0 0.0
2018-Dec-09 01:58N 33°45' W 118°14'0 0.0
2018-Dec-09 01:28N 33°45' W 118°14'0 0.0
2018-Dec-09 00:58N 33°45' W 118°14'0 0.0
2018-Dec-09 00:28N 33°45' W 118°14'0 0.0
2018-Dec-08 23:58N 33°45' W 118°14'0 0.0
2018-Dec-08 23:28N 33°45' W 118°14'0 0.0
2018-Dec-08 22:58N 33°45' W 118°14'0 0.0
2018-Dec-08 22:28N 33°45' W 118°14'0 0.0
2018-Dec-08 21:58N 33°45' W 118°14'0 0.0
2018-Dec-08 21:28N 33°45' W 118°14'0 0.0
2018-Dec-08 20:58N 33°45' W 118°14'0 0.0
2018-Dec-08 20:28N 33°45' W 118°14'0 0.0
2018-Dec-08 19:58N 33°45' W 118°14'0 0.0
2018-Dec-08 19:28N 33°45' W 118°14'0 0.0
2018-Dec-08 18:58N 33°45' W 118°14'0 0.0
2018-Dec-08 18:28N 33°45' W 118°14'0 0.0
2018-Dec-08 17:58N 33°45' W 118°14'0 0.0
2018-Dec-08 17:28N 33°45' W 118°14'0 0.0
2018-Dec-08 16:58N 33°45' W 118°14'0 0.0
2018-Dec-08 16:28N 33°45' W 118°14'0 0.0
2018-Dec-08 15:58N 33°45' W 118°14'0 0.0
2018-Dec-08 15:28N 33°45' W 118°14'0 0.0
2018-Dec-08 14:58N 33°45' W 118°14'0 0.0
2018-Dec-08 14:28N 33°45' W 118°14'0 0.0
2018-Dec-08 13:58N 33°45' W 118°14'0 0.0
2018-Dec-08 13:28N 33°45' W 118°14'0 0.0
2018-Dec-08 13:00N 33°45' W 118°14'0 1.0
2018-Dec-08 12:30N 33°45' W 118°14'4 7.4
2018-Dec-08 12:00N 33°42' W 118°11'2 3.4
2018-Dec-08 11:28N 33°41' W 118°09'0 0.0
2018-Dec-08 10:58N 33°41' W 118°09'0 0.1
2018-Dec-08 10:28N 33°41' W 118°09'0 0.0
2018-Dec-08 09:58N 33°41' W 118°09'0 0.0
2018-Dec-08 09:28N 33°41' W 118°09'0 0.0
2018-Dec-08 08:58N 33°41' W 118°09'0 0.0
2018-Dec-08 08:28N 33°41' W 118°09'0 0.1
2018-Dec-08 07:58N 33°41' W 118°09'0 0.0
2018-Dec-08 07:25N 33°41' W 118°09'0 0.0
2018-Dec-08 06:58N 33°41' W 118°09'0 0.1
2018-Dec-08 06:28N 33°41' W 118°09'0 0.1
2018-Dec-08 05:58N 33°41' W 118°09'0 0.1
2018-Dec-08 05:28N 33°41' W 118°09'0 0.1
2018-Dec-08 04:58N 33°41' W 118°09'0 0.0
2018-Dec-08 04:28N 33°41' W 118°09'0 0.1
2018-Dec-08 03:58N 33°41' W 118°09'0 0.0
2018-Dec-08 03:28N 33°41' W 118°09'0 0.0
2018-Dec-08 02:58N 33°41' W 118°09'0 0.0
2018-Dec-08 02:28N 33°41' W 118°09'0 0.0
2018-Dec-08 01:58N 33°41' W 118°09'0 0.0
2018-Dec-08 01:28N 33°41' W 118°09'0 0.0
2018-Dec-08 00:55N 33°41' W 118°09'0 0.0
2018-Dec-08 00:28N 33°41' W 118°09'0 0.0
2018-Dec-07 23:55N 33°41' W 118°09'0 0.0
2018-Dec-07 23:28N 33°41' W 118°09'0 0.0
2018-Dec-07 22:58N 33°41' W 118°09'0 0.0
2018-Dec-07 22:28N 33°41' W 118°09'0 0.0
2018-Dec-07 21:58N 33°41' W 118°09'0 0.0
2018-Dec-07 21:25N 33°41' W 118°09'0 0.1
2018-Dec-07 20:58N 33°41' W 118°09'0 0.2
2018-Dec-07 20:28N 33°41' W 118°09'0 0.1
2018-Dec-07 19:58N 33°41' W 118°09'0 0.1
2018-Dec-07 19:28N 33°41' W 118°09'0 0.0
2018-Dec-07 18:58N 33°41' W 118°09'0 0.1
2018-Dec-07 18:28N 33°41' W 118°09'0 0.1
2018-Dec-07 17:58N 33°41' W 118°09'0 0.0
2018-Dec-07 17:28N 33°41' W 118°09'0 0.1
2018-Dec-07 16:58N 33°41' W 118°09'0 0.0
2018-Dec-07 16:28N 33°41' W 118°09'0 0.1
2018-Dec-07 15:58N 33°41' W 118°09'0 0.0
2018-Dec-07 15:28N 33°41' W 118°09'0 0.1
2018-Dec-07 14:58N 33°41' W 118°09'0 0.0
2018-Dec-07 14:28N 33°41' W 118°09'0 0.1
2018-Dec-07 13:58N 33°41' W 118°09'0 0.0
2018-Dec-07 13:28N 33°41' W 118°09'0 0.1
2018-Dec-07 12:58N 33°41' W 118°09'1 1.9
2018-Dec-07 12:30N 33°40' W 118°09'3 5.4
2018-Dec-07 12:00N 33°38' W 118°11'3 6.5
2018-Dec-07 11:30N 33°36' W 118°14'4 9.0
2018-Dec-07 11:01N 33°36' W 118°19'5 9.0
2018-Dec-07 10:30N 33°37' W 118°24'5 9.2
2018-Dec-07 10:00N 33°40' W 118°29'5 9.2
2018-Dec-07 09:30N 33°42' W 118°34'5 9.3
2018-Dec-07 09:00N 33°44' W 118°39'5 9.4
2018-Dec-07 08:30N 33°47' W 118°43'5 9.6
2018-Dec-07 08:00N 33°49' W 118°49'5 9.5
2018-Dec-07 07:30N 33°51' W 118°53'5 9.6
2018-Dec-07 07:00N 33°54' W 118°58'5 9.2
2018-Dec-07 06:30N 33°56' W 119°03'5 9.4
2018-Dec-07 06:00N 33°59' W 119°08'6 9.7
2018-Dec-07 05:26N 34°01' W 119°14'4 9.9
2018-Dec-07 05:00N 34°03' W 119°19'5 9.1
2018-Dec-07 04:29N 34°04' W 119°24'4 8.6
2018-Dec-07 04:00N 34°05' W 119°29'9 8.9
2018-Dec-07 03:00N 34°08' W 119°39'5 9.4
2018-Dec-07 02:25N 34°09' W 119°46'4 8.8
2018-Dec-07 02:00N 34°10' W 119°50'5 9.3
2018-Dec-07 01:30N 34°12' W 119°55'5 6.7
2018-Dec-07 00:43N 34°13' W 120°01'2 6.8
2018-Dec-07 00:28N 34°13' W 120°03'3 6.9
2018-Dec-07 00:00N 34°14' W 120°07'4 6.6
2018-Dec-06 23:26N 34°15' W 120°12'3 6.4
2018-Dec-06 23:00N 34°16' W 120°15'4 6.4
2018-Dec-06 22:26N 34°17' W 120°19'3 6.2
2018-Dec-06 22:00N 34°18' W 120°22'3 6.4
2018-Dec-06 21:29N 34°18' W 120°26'4 6.4
2018-Dec-06 20:55N 34°19' W 120°30'3 6.5
2018-Dec-06 20:30N 34°20' W 120°33'4 7.6
2018-Dec-06 19:59N 34°21' W 120°38'4 9.1
2018-Dec-06 19:30N 34°22' W 120°43'5 8.9
2018-Dec-06 18:56N 34°24' W 120°49'6 8.6
2018-Dec-06 18:17N 34°24' W 120°56'3 8.7
2018-Dec-06 17:53N 34°25' W 120°60'3 8.6
2018-Dec-06 17:30N 34°25' W 121°04'4 8.8
2018-Dec-06 17:00N 34°25' W 121°09'4 8.7
2018-Dec-06 16:30N 34°25' W 121°14'5 9.4
2018-Dec-06 16:00N 34°25' W 121°20'5 9.5
2018-Dec-06 15:30N 34°25' W 121°26'3 5.8
2018-Dec-06 15:00N 34°25' W 121°29'815.5
2018-Dec-06 14:30N 34°26' W 121°39'815.5
2018-Dec-06 14:00N 34°26' W 121°48'815.3
2018-Dec-06 13:30N 34°26' W 121°58'  

Dump ship's entire track history